createdAt,value
2019-03-06T00:00:07.895Z,67.20
2019-03-06T00:02:44.863Z,67.20
2019-03-06T00:05:15.477Z,67.20
2019-03-06T00:07:45.894Z,67.30
2019-03-06T00:10:28.240Z,67.30
2019-03-06T00:13:01.328Z,67.30
2019-03-06T00:15:32.024Z,67.40
2019-03-06T00:18:02.903Z,67.60
2019-03-06T00:20:33.313Z,67.70
2019-03-06T00:23:04.203Z,67.70
2019-03-06T00:25:34.632Z,67.80
2019-03-06T00:28:05.142Z,67.80
2019-03-06T00:30:36.210Z,67.80
2019-03-06T00:33:06.766Z,67.80
2019-03-06T00:35:43.203Z,67.90
2019-03-06T00:38:13.842Z,67.90
2019-03-06T00:40:52.942Z,67.80
2019-03-06T00:43:27.107Z,67.90
2019-03-06T00:45:57.583Z,67.90
2019-03-06T00:48:29.383Z,67.80
2019-03-06T00:51:00.057Z,67.80
2019-03-06T00:53:31.074Z,67.80
2019-03-06T00:56:01.758Z,67.70
2019-03-06T00:58:34.074Z,67.70
2019-03-06T01:01:04.441Z,67.80
2019-03-06T01:03:34.943Z,67.70
2019-03-06T01:06:07.786Z,67.70
2019-03-06T01:08:42.099Z,68.10
2019-03-06T01:11:12.331Z,67.70
2019-03-06T01:13:43.863Z,67.70
2019-03-06T01:16:17.570Z,67.70
2019-03-06T01:18:50.229Z,67.70
2019-03-06T01:21:22.798Z,67.70
2019-03-06T01:23:55.126Z,67.60
2019-03-06T01:26:25.842Z,67.70
2019-03-06T01:28:58.936Z,67.80
2019-03-06T01:31:31.262Z,67.90
2019-03-06T01:34:28.356Z,67.90
2019-03-06T01:37:10.176Z,68.10
2019-03-06T01:40:09.888Z,68.00
2019-03-06T01:43:03.111Z,67.90
2019-03-06T01:45:33.562Z,68.00
2019-03-06T01:48:04.214Z,68.00
2019-03-06T01:50:36.755Z,68.10
2019-03-06T01:53:09.387Z,68.20
2019-03-06T01:55:40.103Z,68.20
2019-03-06T01:58:10.966Z,68.40
2019-03-06T02:00:44.594Z,68.40
2019-03-06T02:03:15.336Z,68.50
2019-03-06T02:05:45.823Z,68.50
2019-03-06T02:08:19.656Z,68.50
2019-03-06T02:10:52.244Z,68.50
2019-03-06T02:13:24.520Z,68.60
2019-03-06T02:15:55.417Z,68.50
2019-03-06T02:18:29.944Z,68.50
2019-03-06T02:21:00.699Z,68.50
2019-03-06T02:23:31.194Z,68.60
2019-03-06T02:26:03.408Z,68.60
2019-03-06T02:28:33.836Z,68.70
2019-03-06T02:31:04.283Z,68.70
2019-03-06T02:33:34.714Z,68.70
2019-03-06T02:36:09.335Z,68.70
2019-03-06T02:38:41.886Z,68.70
2019-03-06T02:41:12.940Z,68.70
2019-03-06T02:43:46.396Z,68.60
2019-03-06T02:46:16.752Z,68.60
2019-03-06T02:48:47.173Z,68.70
2019-03-06T02:51:17.598Z,68.70
2019-03-06T02:53:48.307Z,68.70
2019-03-06T02:56:18.714Z,68.70
2019-03-06T02:58:55.227Z,68.80
2019-03-06T03:01:51.064Z,68.90
2019-03-06T03:04:26.618Z,68.90
2019-03-06T03:07:00.152Z,68.90
2019-03-06T03:09:31.133Z,68.70
2019-03-06T03:12:01.666Z,68.80
2019-03-06T03:14:34.408Z,68.80
2019-03-06T03:17:05.657Z,68.80
2019-03-06T03:19:36.248Z,68.90
2019-03-06T03:22:07.567Z,69.00
2019-03-06T03:24:38.645Z,69.00
2019-03-06T03:27:10.429Z,69.10
2019-03-06T03:29:40.896Z,69.10
2019-03-06T03:32:11.556Z,69.00
2019-03-06T03:34:43.270Z,69.20
2019-03-06T03:37:13.720Z,69.20
2019-03-06T03:39:44.297Z,69.30
2019-03-06T03:42:15.025Z,69.30
2019-03-06T03:44:45.828Z,69.30
2019-03-06T03:47:16.338Z,69.40
2019-03-06T03:49:46.725Z,69.40
2019-03-06T03:52:17.471Z,69.40
2019-03-06T03:54:47.936Z,69.50
2019-03-06T03:57:18.651Z,69.60
2019-03-06T03:59:49.031Z,69.70
2019-03-06T04:02:19.579Z,69.70
2019-03-06T04:04:50.206Z,69.80
2019-03-06T04:07:20.642Z,69.80
2019-03-06T04:09:51.074Z,69.80
2019-03-06T04:12:21.524Z,69.90
2019-03-06T04:14:51.897Z,69.90
2019-03-06T04:17:22.694Z,69.90
2019-03-06T04:19:53.515Z,69.90
2019-03-06T04:22:23.996Z,69.90
2019-03-06T04:24:54.929Z,69.90
2019-03-06T04:27:25.818Z,69.90
2019-03-06T04:29:56.263Z,69.90
2019-03-06T04:32:27.339Z,70.70
2019-03-06T04:34:58.228Z,70.00
2019-03-06T04:37:28.650Z,70.10
2019-03-06T04:39:59.236Z,70.40
2019-03-06T04:42:31.723Z,70.40
2019-03-06T04:45:02.498Z,70.30
2019-03-06T04:47:32.890Z,70.40
2019-03-06T04:50:03.493Z,70.40
2019-03-06T04:52:33.896Z,70.50
2019-03-06T04:55:05.857Z,70.60
2019-03-06T04:57:38.362Z,70.60
2019-03-06T05:00:10.765Z,70.50
2019-03-06T05:02:41.726Z,70.60
2019-03-06T05:05:12.888Z,70.60
2019-03-06T05:07:46.882Z,70.70
2019-03-06T05:10:22.677Z,70.70
2019-03-06T05:12:53.606Z,70.80
2019-03-06T05:15:24.274Z,70.90
2019-03-06T05:18:02.538Z,70.90
2019-03-06T05:20:33.043Z,70.90
2019-03-06T05:23:03.563Z,71.10
2019-03-06T05:25:36.074Z,71.20
2019-03-06T05:28:06.692Z,71.20
2019-03-06T05:30:37.502Z,71.50
2019-03-06T05:33:11.157Z,71.20
2019-03-06T05:36:34.883Z,71.40
2019-03-06T05:39:13.728Z,71.50
2019-03-06T05:41:44.199Z,71.50
2019-03-06T05:44:14.730Z,71.50
2019-03-06T05:46:46.284Z,71.50
2019-03-06T05:49:17.096Z,71.60
2019-03-06T05:51:47.881Z,71.60
2019-03-06T05:54:18.788Z,71.70
2019-03-06T05:56:55.481Z,71.90
2019-03-06T05:59:26.380Z,71.90
2019-03-06T06:01:57.072Z,71.90
2019-03-06T06:04:34.110Z,71.90
2019-03-06T06:07:07.122Z,72.60
2019-03-06T06:09:37.560Z,72.00
2019-03-06T06:12:12.533Z,71.80
2019-03-06T06:14:43.109Z,71.80
2019-03-06T06:17:16.268Z,71.80
2019-03-06T06:19:46.731Z,71.90
2019-03-06T06:22:24.836Z,71.90
2019-03-06T06:24:55.439Z,71.80
2019-03-06T06:27:25.946Z,71.70
2019-03-06T06:30:02.661Z,71.80
2019-03-06T06:32:41.159Z,71.80
2019-03-06T06:35:13.865Z,71.70
2019-03-06T06:37:44.670Z,71.70
2019-03-06T06:40:16.892Z,71.60
2019-03-06T06:42:47.733Z,71.60
2019-03-06T06:45:49.698Z,71.50
2019-03-06T06:48:26.059Z,71.50
2019-03-06T06:51:48.091Z,71.40
2019-03-06T06:54:58.138Z,71.30
2019-03-06T06:58:31.773Z,71.20
2019-03-06T07:02:13.021Z,71.10
2019-03-06T07:05:40.435Z,71.00
2019-03-06T07:08:38.366Z,71.10
2019-03-06T07:11:39.446Z,71.20
2019-03-06T07:14:32.161Z,71.20
2019-03-06T07:17:33.822Z,71.10
2019-03-06T07:20:23.335Z,71.20
2019-03-06T07:23:16.881Z,71.20
2019-03-06T07:26:21.638Z,70.90
2019-03-06T07:29:05.919Z,70.80
2019-03-06T07:31:44.820Z,70.80
2019-03-06T07:34:42.927Z,70.80
2019-03-06T07:37:34.020Z,70.40
2019-03-06T07:40:16.242Z,70.40
2019-03-06T07:42:57.450Z,70.10
2019-03-06T07:45:59.713Z,70.00
2019-03-06T07:49:01.540Z,69.80
2019-03-06T07:52:05.119Z,69.60
2019-03-06T07:55:01.307Z,69.40
2019-03-06T07:58:30.394Z,70.00
2019-03-06T08:01:01.058Z,69.00
2019-03-06T08:03:43.591Z,68.90
2019-03-06T08:06:14.172Z,68.70
2019-03-06T08:08:45.284Z,68.60
2019-03-06T08:11:23.873Z,68.70
2019-03-06T08:14:32.910Z,68.50
2019-03-06T08:17:28.871Z,68.40
2019-03-06T08:20:17.453Z,68.30
2019-03-06T08:23:21.866Z,67.90
2019-03-06T08:25:52.833Z,67.50
2019-03-06T08:28:27.813Z,67.40
2019-03-06T08:31:10.772Z,67.20
2019-03-06T08:33:41.242Z,67.00
2019-03-06T08:36:11.975Z,66.40
2019-03-06T08:38:42.832Z,66.40
2019-03-06T08:41:14.557Z,66.30
2019-03-06T08:43:46.351Z,66.10
2019-03-06T08:46:38.475Z,65.80
2019-03-06T08:49:29.913Z,65.60
2019-03-06T08:52:07.998Z,65.20
2019-03-06T08:54:58.293Z,64.80
2019-03-06T08:57:40.307Z,64.90
2019-03-06T09:00:45.729Z,65.10
2019-03-06T09:03:24.556Z,64.80
2019-03-06T09:06:33.677Z,64.30
2019-03-06T09:09:34.846Z,65.00
2019-03-06T09:12:30.530Z,63.90
2019-03-06T09:15:19.925Z,63.60
2019-03-06T09:17:58.755Z,63.40
2019-03-06T09:20:57.202Z,63.00
2019-03-06T09:23:55.603Z,62.70
2019-03-06T09:26:36.390Z,62.30
2019-03-06T09:29:20.602Z,62.20
2019-03-06T09:32:08.892Z,62.00
2019-03-06T09:35:07.674Z,61.80
2019-03-06T09:37:50.868Z,61.50
2019-03-06T09:40:46.496Z,61.60
2019-03-06T09:43:30.948Z,61.70
2019-03-06T09:46:20.593Z,61.40
2019-03-06T09:49:11.848Z,61.30
2019-03-06T09:52:05.128Z,60.10
2019-03-06T09:55:07.516Z,60.00
2019-03-06T09:58:12.465Z,60.00
2019-03-06T10:01:10.215Z,59.70
2019-03-06T10:04:07.259Z,59.60
2019-03-06T10:06:58.780Z,59.30
2019-03-06T10:09:39.923Z,59.20
2019-03-06T10:12:34.674Z,59.00
2019-03-06T10:15:13.618Z,59.10
2019-03-06T10:18:09.095Z,58.80
2019-03-06T10:20:41.068Z,58.50
2019-03-06T10:23:17.134Z,58.50
2019-03-06T10:25:50.421Z,58.50
2019-03-06T10:28:27.811Z,58.30
2019-03-06T10:31:02.324Z,58.00
2019-03-06T10:33:40.950Z,57.80
2019-03-06T10:36:13.879Z,57.70
2019-03-06T10:38:44.623Z,57.70
2019-03-06T10:41:34.615Z,57.60
2019-03-06T10:44:07.632Z,57.70
2019-03-06T10:46:38.440Z,57.80
2019-03-06T10:49:15.573Z,57.60
2019-03-06T10:51:49.458Z,57.10
2019-03-06T10:54:24.451Z,56.90
2019-03-06T10:56:55.519Z,56.50
2019-03-06T10:59:26.188Z,56.20
2019-03-06T11:02:05.992Z,56.20
2019-03-06T11:07:19.720Z,56.00
2019-03-06T11:09:50.954Z,55.80
2019-03-06T11:12:21.894Z,55.70
2019-03-06T11:14:52.458Z,55.90
2019-03-06T11:17:23.085Z,55.80
2019-03-06T11:19:53.891Z,55.70
2019-03-06T11:22:24.422Z,55.90
2019-03-06T11:24:54.973Z,56.10
2019-03-06T11:27:25.688Z,56.20
2019-03-06T11:29:56.362Z,56.10
2019-03-06T11:32:30.149Z,55.90
2019-03-06T11:35:15.087Z,56.00
2019-03-06T11:37:46.849Z,56.00
2019-03-06T11:40:17.829Z,55.90
2019-03-06T11:42:49.867Z,55.80
2019-03-06T11:45:21.128Z,55.70
2019-03-06T11:47:53.925Z,55.70
2019-03-06T11:50:26.392Z,55.80
2019-03-06T11:52:56.906Z,55.70
2019-03-06T11:55:28.196Z,55.60
2019-03-06T11:58:00.123Z,55.50
2019-03-06T12:00:43.760Z,56.20
2019-03-06T12:03:16.647Z,55.40
2019-03-06T12:05:49.728Z,55.20
2019-03-06T12:08:22.751Z,55.00
2019-03-06T12:10:54.008Z,54.70
2019-03-06T12:13:28.282Z,54.60
2019-03-06T12:15:59.000Z,54.50
2019-03-06T12:18:30.263Z,54.50
2019-03-06T12:21:01.060Z,54.40
2019-03-06T12:23:31.792Z,54.40
2019-03-06T12:26:11.025Z,54.50
2019-03-06T12:28:41.910Z,53.80
2019-03-06T12:31:13.571Z,53.50
2019-03-06T12:33:47.155Z,53.40
2019-03-06T12:36:17.792Z,53.20
2019-03-06T12:38:49.254Z,52.90
2019-03-06T12:41:20.691Z,53.00
2019-03-06T12:43:51.213Z,53.00
2019-03-06T12:46:26.237Z,52.90
2019-03-06T12:49:12.258Z,52.40
2019-03-06T12:51:43.060Z,52.40
2019-03-06T12:54:13.811Z,52.10
2019-03-06T12:56:49.352Z,51.80
2019-03-06T12:59:21.135Z,51.50
2019-03-06T13:01:57.496Z,51.50
2019-03-06T13:04:30.400Z,51.30
2019-03-06T13:07:00.987Z,51.20
2019-03-06T13:09:31.519Z,51.30
2019-03-06T13:12:02.650Z,51.10
2019-03-06T13:14:33.179Z,50.80
2019-03-06T13:17:03.730Z,50.40
2019-03-06T13:19:34.133Z,50.20
2019-03-06T13:22:11.074Z,50.20
2019-03-06T13:24:39.645Z,50.20
2019-03-06T13:27:17.428Z,49.70
2019-03-06T13:29:49.906Z,49.30
2019-03-06T13:32:22.224Z,49.00
2019-03-06T13:35:00.452Z,49.00
2019-03-06T13:37:32.530Z,48.90
2019-03-06T13:40:05.127Z,48.60
2019-03-06T13:42:35.729Z,47.80
2019-03-06T13:45:06.786Z,47.70
2019-03-06T13:47:37.775Z,47.60
2019-03-06T13:50:08.293Z,46.90
2019-03-06T13:52:39.370Z,47.10
2019-03-06T13:55:10.434Z,46.60
2019-03-06T13:57:41.452Z,46.70
2019-03-06T14:00:14.937Z,46.90
2019-03-06T14:02:45.492Z,46.90
2019-03-06T14:05:17.467Z,46.80
2019-03-06T14:07:55.981Z,46.90
2019-03-06T14:10:23.769Z,46.60
2019-03-06T14:13:00.229Z,46.60
2019-03-06T14:15:31.954Z,47.20
2019-03-06T14:18:03.016Z,46.60
2019-03-06T14:20:33.631Z,46.60
2019-03-06T14:23:04.483Z,46.80
2019-03-06T14:25:36.005Z,47.00
2019-03-06T14:28:06.566Z,47.00
2019-03-06T14:30:54.627Z,47.00
2019-03-06T14:33:26.024Z,47.10
2019-03-06T14:35:57.255Z,47.30
2019-03-06T14:38:28.233Z,47.50
2019-03-06T14:41:09.702Z,47.30
2019-03-06T14:44:05.856Z,46.90
2019-03-06T14:46:36.998Z,46.70
2019-03-06T14:49:09.978Z,46.70
2019-03-06T14:51:42.819Z,46.70
2019-03-06T14:54:13.701Z,46.80
2019-03-06T14:56:48.925Z,46.80
2019-03-06T14:59:23.109Z,46.80
2019-03-06T15:01:54.177Z,46.90
2019-03-06T15:04:24.889Z,46.90
2019-03-06T15:06:56.516Z,46.90
2019-03-06T15:09:29.238Z,47.00
2019-03-06T15:12:02.142Z,47.60
2019-03-06T15:14:36.754Z,47.10
2019-03-06T15:17:07.993Z,47.10
2019-03-06T15:19:39.292Z,47.10
2019-03-06T15:22:11.939Z,47.10
2019-03-06T15:24:42.720Z,47.00
2019-03-06T15:27:14.696Z,47.00
2019-03-06T15:29:45.839Z,46.90
2019-03-06T15:32:16.602Z,46.90
2019-03-06T15:34:47.060Z,46.80
2019-03-06T15:37:20.583Z,46.70
2019-03-06T15:39:55.764Z,46.80
2019-03-06T15:42:30.937Z,46.70
2019-03-06T15:45:01.405Z,47.20
2019-03-06T15:47:36.211Z,46.50
2019-03-06T15:50:12.529Z,46.60
2019-03-06T15:52:44.108Z,46.50
2019-03-06T15:55:37.104Z,46.60
2019-03-06T15:58:07.855Z,46.60
2019-03-06T16:00:45.773Z,46.70
2019-03-06T16:03:11.228Z,46.90
2019-03-06T16:05:43.447Z,46.80
2019-03-06T16:08:17.406Z,46.90
2019-03-06T16:10:48.292Z,47.00
2019-03-06T16:13:19.076Z,47.10
2019-03-06T16:15:49.657Z,47.10
2019-03-06T16:18:20.468Z,47.20
2019-03-06T16:20:51.190Z,47.40
2019-03-06T16:23:22.349Z,47.40
2019-03-06T16:25:53.415Z,47.50
2019-03-06T16:28:29.963Z,47.60
2019-03-06T16:31:00.940Z,47.70
2019-03-06T16:33:31.575Z,47.90
2019-03-06T16:36:02.196Z,47.90
2019-03-06T16:38:35.794Z,48.10
2019-03-06T16:41:06.396Z,48.30
2019-03-06T16:43:38.825Z,48.20
2019-03-06T16:46:09.346Z,48.30
2019-03-06T16:48:39.950Z,48.60
2019-03-06T16:51:11.207Z,49.00
2019-03-06T16:53:41.968Z,48.90
2019-03-06T16:56:12.742Z,49.00
2019-03-06T16:58:43.293Z,49.20
2019-03-06T17:01:13.736Z,49.40
2019-03-06T17:03:44.188Z,49.50
2019-03-06T17:06:14.672Z,49.70
2019-03-06T17:08:45.114Z,49.80
2019-03-06T17:11:15.602Z,49.90
2019-03-06T17:13:48.216Z,50.10
2019-03-06T17:16:22.398Z,50.10
2019-03-06T17:18:52.821Z,50.20
2019-03-06T17:21:23.499Z,50.30
2019-03-06T17:23:53.886Z,50.50
2019-03-06T17:26:26.998Z,50.60
2019-03-06T17:29:12.698Z,50.50
2019-03-06T17:31:44.758Z,50.60
2019-03-06T17:34:15.662Z,50.50
2019-03-06T17:36:46.932Z,50.50
2019-03-06T17:39:18.071Z,50.50
2019-03-06T17:41:50.114Z,50.40
2019-03-06T17:44:21.300Z,50.30
2019-03-06T17:46:52.123Z,50.30
2019-03-06T17:49:22.597Z,50.20
2019-03-06T17:51:53.624Z,50.20
2019-03-06T17:54:24.050Z,50.20
2019-03-06T17:56:54.830Z,50.20
2019-03-06T17:59:25.370Z,50.40
2019-03-06T18:01:55.787Z,50.40
2019-03-06T18:04:28.917Z,50.40
2019-03-06T18:06:59.202Z,50.50
2019-03-06T18:09:30.271Z,50.60
2019-03-06T18:12:28.562Z,50.60
2019-03-06T18:15:00.354Z,50.70
2019-03-06T18:17:31.468Z,50.70
2019-03-06T18:20:01.955Z,50.80
2019-03-06T18:22:32.822Z,50.70
2019-03-06T18:25:03.531Z,50.50
2019-03-06T18:27:34.446Z,50.50
2019-03-06T18:30:05.286Z,50.40
2019-03-06T18:32:36.326Z,50.30
2019-03-06T18:35:07.876Z,50.20
2019-03-06T18:37:38.321Z,50.20
2019-03-06T18:40:11.756Z,49.90
2019-03-06T18:42:42.700Z,49.90
2019-03-06T18:45:16.956Z,49.80
2019-03-06T18:47:47.618Z,49.80
2019-03-06T18:50:19.139Z,49.70
2019-03-06T18:52:50.194Z,49.80
2019-03-06T18:55:22.912Z,49.80
2019-03-06T18:58:12.971Z,49.70
2019-03-06T19:00:50.420Z,49.90
2019-03-06T19:03:23.340Z,49.80
2019-03-06T19:05:56.333Z,49.80
2019-03-06T19:08:31.535Z,49.90
2019-03-06T19:11:01.391Z,50.00
2019-03-06T19:13:31.874Z,49.90
2019-03-06T19:16:02.234Z,50.00
2019-03-06T19:18:38.249Z,49.90
2019-03-06T19:21:08.737Z,49.90
2019-03-06T19:23:39.303Z,50.00
2019-03-06T19:26:09.927Z,50.00
2019-03-06T19:28:40.619Z,50.70
2019-03-06T19:31:11.039Z,50.10
2019-03-06T19:33:42.552Z,50.10
2019-03-06T19:36:14.605Z,50.20
2019-03-06T19:38:45.446Z,50.30
2019-03-06T19:41:15.899Z,50.40
2019-03-06T19:43:47.757Z,50.40
2019-03-06T19:46:18.490Z,50.40
2019-03-06T19:48:48.903Z,50.50
2019-03-06T19:51:19.373Z,50.50
2019-03-06T19:53:57.553Z,50.60
2019-03-06T19:56:28.041Z,50.70
2019-03-06T19:58:58.855Z,50.70
2019-03-06T20:01:29.589Z,50.80
2019-03-06T20:04:36.949Z,50.80
2019-03-06T20:06:46.946Z,50.80
2019-03-06T20:09:31.955Z,50.80
2019-03-06T20:12:13.764Z,51.00
2019-03-06T20:15:24.779Z,51.00
2019-03-06T20:17:59.256Z,51.10
2019-03-06T20:20:35.768Z,51.20
2019-03-06T20:23:12.844Z,51.40
2019-03-06T20:25:53.507Z,51.40
2019-03-06T20:28:29.308Z,51.60
2019-03-06T20:31:09.559Z,51.60
2019-03-06T20:34:11.914Z,51.80
2019-03-06T20:36:42.339Z,51.80
2019-03-06T20:39:17.784Z,51.80
2019-03-06T20:41:49.624Z,51.80
2019-03-06T20:44:23.135Z,51.80
2019-03-06T20:46:56.728Z,51.80
2019-03-06T20:49:27.420Z,51.80
2019-03-06T20:51:59.213Z,51.80
2019-03-06T20:54:31.322Z,51.80
2019-03-06T20:57:01.935Z,51.80
2019-03-06T20:59:33.971Z,51.80
2019-03-06T21:02:05.656Z,51.90
2019-03-06T21:04:36.190Z,51.80
2019-03-06T21:07:06.784Z,51.80
2019-03-06T21:09:38.148Z,51.70
2019-03-06T21:12:11.427Z,51.90
2019-03-06T21:14:42.009Z,51.90
2019-03-06T21:17:12.891Z,51.80
2019-03-06T21:19:43.229Z,52.00
2019-03-06T21:22:15.909Z,52.10
2019-03-06T21:24:46.359Z,52.30
2019-03-06T21:27:17.890Z,52.50
2019-03-06T21:29:48.472Z,52.60
2019-03-06T21:32:18.943Z,52.50
2019-03-06T21:34:51.445Z,52.60
2019-03-06T21:37:22.489Z,52.60
2019-03-06T21:39:53.330Z,52.60
2019-03-06T21:42:23.906Z,52.70
2019-03-06T21:44:54.487Z,52.70
2019-03-06T21:47:26.374Z,52.60
2019-03-06T21:49:56.855Z,52.70
2019-03-06T21:52:27.393Z,52.50
2019-03-06T21:55:03.327Z,52.50
2019-03-06T21:57:39.841Z,52.60
2019-03-06T22:00:19.548Z,52.60
2019-03-06T22:02:58.572Z,52.50
2019-03-06T22:05:36.724Z,52.50
2019-03-06T22:08:37.849Z,52.60
2019-03-06T22:11:10.743Z,52.70
2019-03-06T22:13:53.127Z,52.80
2019-03-06T22:16:29.659Z,52.90
2019-03-06T22:19:01.032Z,52.90
2019-03-06T22:21:36.813Z,52.90
2019-03-06T22:24:07.400Z,52.90
2019-03-06T22:26:41.950Z,52.90
2019-03-06T22:29:26.064Z,52.80
2019-03-06T22:32:06.639Z,52.80
2019-03-06T22:34:43.609Z,52.70
2019-03-06T22:37:18.909Z,52.70
2019-03-06T22:40:04.771Z,52.60
2019-03-06T22:42:36.248Z,52.60
2019-03-06T22:45:08.406Z,52.50
2019-03-06T22:47:39.617Z,52.50
2019-03-06T22:50:15.901Z,52.50
2019-03-06T22:52:46.513Z,52.50
2019-03-06T22:55:18.685Z,52.50
2019-03-06T22:57:49.953Z,52.40
2019-03-06T23:00:53.957Z,52.30
2019-03-06T23:03:26.843Z,52.40
2019-03-06T23:05:57.389Z,52.10
2019-03-06T23:08:47.336Z,52.10
2019-03-06T23:11:18.359Z,52.20
2019-03-06T23:13:53.140Z,52.10
2019-03-06T23:16:38.005Z,52.20
2019-03-06T23:19:09.199Z,52.00
2019-03-06T23:21:41.063Z,51.90
2019-03-06T23:24:11.998Z,51.90
2019-03-06T23:26:44.401Z,51.90
2019-03-06T23:29:15.360Z,51.90
2019-03-06T23:31:47.969Z,51.80
2019-03-06T23:34:22.908Z,51.80
2019-03-06T23:36:53.597Z,51.70
2019-03-06T23:39:24.227Z,51.60
2019-03-06T23:41:57.902Z,51.50
2019-03-06T23:44:28.422Z,51.50
2019-03-06T23:47:02.229Z,51.40
2019-03-06T23:49:33.488Z,51.40
2019-03-06T23:52:16.371Z,51.30
2019-03-06T23:54:57.415Z,51.30
2019-03-06T23:57:28.452Z,51.30
2019-03-06T23:59:59.560Z,51.40
